Time;durP1;ratioP1;P1;durP2;ratioP2;P2;SDS_P1;SDS_P2;PMS_P1;PMS_P2;Temp;Humidity;BMP_temperature;BMP_pressure;BME280_temperature;BME280_humidity;BME280_pressure;Samples;Min_cycle;Max_cycle;Signal;HPM_P1;HPM_P2
2023/06/01 00:01:51;;;;;;;;;0.00;0.00;;;;;-146.67;29.30;74102.63;5021206;28;62018;-81
2023/06/01 00:04:19;;;;;;;;;0.00;0.00;;;;;-146.67;29.25;74100.63;5023380;28;61820;-80
2023/06/01 00:06:45;;;;;;;;;0.00;0.00;;;;;-146.67;29.63;74100.63;5005802;28;61989;-81
2023/06/01 00:09:10;;;;;;;;;0.00;0.00;;;;;-146.67;29.64;74112.63;5023741;28;62146;-81
2023/06/01 00:11:36;;;;;;;;;0.00;0.00;;;;;-146.67;29.77;74116.59;5023087;28;61805;-81
2023/06/01 00:14:01;;;;;;;;;0.00;0.00;;;;;-146.67;29.72;74120.59;5023428;28;61879;-80
2023/06/01 00:16:27;;;;;;;;;0.00;0.00;;;;;-146.67;29.58;74126.59;5023042;28;61947;-81
2023/06/01 00:18:53;;;;;;;;;0.00;0.00;;;;;-146.67;29.61;74122.59;5022815;28;61742;-80
2023/06/01 00:21:19;;;;;;;;;0.00;0.00;;;;;-146.67;29.69;74124.59;5022463;28;61718;-80
2023/06/01 00:23:45;;;;;;;;;0.00;0.00;;;;;-146.67;29.97;74126.59;5023319;28;61810;-80
2023/06/01 00:26:11;;;;;;;;;0.00;0.00;;;;;-146.67;29.91;74126.59;5005028;28;62176;-81
2023/06/01 00:28:36;;;;;;;;;0.00;0.00;;;;;-146.67;29.83;74130.59;5023556;28;61889;-80
2023/06/01 00:31:02;;;;;;;;;0.00;0.00;;;;;-146.67;29.80;74138.56;5022431;28;61818;-80
2023/06/01 00:33:27;;;;;;;;;0.00;0.00;;;;;-146.67;29.72;74140.56;5022579;28;61780;-80
2023/06/01 00:35:53;;;;;;;;;0.00;0.00;;;;;-146.67;30.11;74148.56;5023265;28;62267;-81
2023/06/01 00:38:18;;;;;;;;;0.00;0.00;;;;;-146.67;30.16;74150.53;5023183;28;62026;-81
2023/06/01 00:40:44;;;;;;;;;0.00;0.00;;;;;-146.67;30.25;74162.53;5022162;28;62877;-80
2023/06/01 00:43:10;;;;;;;;;0.00;0.00;;;;;-146.67;30.56;74168.50;5005206;28;61758;-80
2023/06/01 00:45:37;;;;;;;;;0.00;0.00;;;;;-146.67;30.28;74176.50;5022687;28;61710;-80
2023/06/01 00:48:04;;;;;;;;;0.00;0.00;;;;;-146.67;30.45;74180.50;5022015;28;61801;-80
2023/06/01 00:50:30;;;;;;;;;0.00;0.00;;;;;-146.67;30.65;74186.47;5022054;28;63256;-80
2023/06/01 00:52:57;;;;;;;;;0.00;0.00;;;;;-146.67;30.68;74194.47;5005182;28;61840;-80
2023/06/01 00:55:22;;;;;;;;;0.00;0.00;;;;;-146.67;30.93;74196.47;5004555;28;61814;-81
2023/06/01 00:57:50;;;;;;;;;0.00;0.00;;;;;-146.67;30.80;74200.44;5004930;28;61919;-81
2023/06/01 01:00:17;;;;;;;;;0.00;0.00;;;;;-146.67;30.63;74208.44;5003788;28;63924;-80
2023/06/01 01:02:48;;;;;;;;;0.00;0.00;;;;;-146.67;30.52;74204.44;5022126;28;62132;-80
2023/06/01 01:05:15;;;;;;;;;0.00;0.00;;;;;-146.67;30.61;74214.44;5005019;28;61856;-80
2023/06/01 01:07:41;;;;;;;;;0.00;0.00;;;;;-146.67;30.84;74208.44;5004903;28;62396;-80
2023/06/01 01:10:18;;;;;;;;;0.00;0.00;;;;;-146.67;30.77;74204.44;5004306;28;63634;-80
2023/06/01 01:12:53;;;;;;;;;0.00;0.00;;;;;-146.67;30.98;74204.44;5022167;28;61914;-80
2023/06/01 01:15:29;;;;;;;;;0.00;0.00;;;;;-146.67;31.01;74202.44;5021987;28;61884;-80
2023/06/01 01:18:03;;;;;;;;;0.00;0.00;;;;;-146.67;30.78;74208.44;5004168;28;62223;-81
2023/06/01 01:20:35;;;;;;;;;0.00;0.00;;;;;-146.67;30.46;74216.44;5021646;28;63101;-81
2023/06/01 01:23:12;;;;;;;;;0.00;0.00;;;;;-146.67;30.88;74234.38;5022400;28;61744;-81
2023/06/01 01:26:00;;;;;;;;;0.00;0.00;;;;;-146.67;31.25;74248.38;5022356;28;62217;-80
2023/06/01 01:28:37;;;;;;;;;0.00;0.00;;;;;-146.67;31.21;74252.34;5003997;28;61884;-81
2023/06/01 01:31:05;;;;;;;;;0.00;0.00;;;;;-146.67;31.82;74286.28;5021987;28;63256;-80
2023/06/01 01:33:32;;;;;;;;;0.00;0.00;;;;;-146.67;31.35;74278.31;5004151;28;61956;-81
2023/06/01 01:36:00;;;;;;;;;0.00;0.00;;;;;-146.67;31.56;74282.31;5004289;28;62041;-80
2023/06/01 01:38:25;;;;;;;;;0.00;0.00;;;;;-146.67;31.54;74290.28;5004732;28;61881;-81
2023/06/01 01:40:52;;;;;;;;;0.00;0.00;;;;;-146.67;31.65;74298.28;5021338;28;61721;-80
2023/06/01 01:43:19;;;;;;;;;0.00;0.00;;;;;-146.67;31.42;74272.31;5004064;28;61841;-80
2023/06/01 01:45:53;;;;;;;;;0.00;0.00;;;;;-146.67;31.48;74278.31;5021668;28;62125;-80
2023/06/01 01:48:52;;;;;;;;;0.00;0.00;;;;;-146.67;32.04;74308.25;5000289;28;62223;-80
2023/06/01 01:51:27;;;;;;;;;0.00;0.00;;;;;-146.67;32.00;74324.22;4996621;28;61934;-81
2023/06/01 01:53:55;;;;;;;;;0.00;0.00;;;;;-146.67;32.41;74330.22;5000808;28;61959;-81
2023/06/01 01:56:22;;;;;;;;;0.00;0.00;;;;;-146.67;32.08;74338.19;5017821;28;61863;-81
2023/06/01 01:58:48;;;;;;;;;0.00;0.00;;;;;-146.67;32.00;74342.19;5020105;28;62164;-81
2023/06/01 02:01:15;;;;;;;;;0.00;0.00;;;;;-146.67;32.27;74350.19;5003592;28;64636;-80
2023/06/01 02:03:40;;;;;;;;;0.00;0.00;;;;;-146.67;32.50;74356.16;5021401;28;62117;-81
2023/06/01 02:06:06;;;;;;;;;0.00;0.00;;;;;-146.67;33.03;74382.13;5021767;28;62242;-80
2023/06/01 02:08:31;;;;;;;;;0.00;0.00;;;;;-146.67;33.22;74384.13;5022254;28;62437;-81
2023/06/01 02:10:56;;;;;;;;;0.00;0.00;;;;;-146.67;32.95;74380.13;5020707;28;62089;-80
2023/06/01 02:13:22;;;;;;;;;0.00;0.00;;;;;-146.67;32.38;74336.19;5021564;28;61809;-80
2023/06/01 02:15:47;;;;;;;;;0.00;0.00;;;;;-146.67;32.19;74320.22;5021432;28;61848;-80
2023/06/01 02:18:17;;;;;;;;;0.00;0.00;;;;;-146.67;32.16;74312.25;5021232;28;61764;-80
2023/06/01 02:20:45;;;;;;;;;0.00;0.00;;;;;-146.67;32.36;74312.25;5020729;28;63105;-81
2023/06/01 02:23:10;;;;;;;;;0.00;0.00;;;;;-146.67;32.20;74312.25;5003626;28;61996;-80
2023/06/01 02:25:36;;;;;;;;;0.00;0.00;;;;;-146.67;32.13;74310.25;5005113;28;62298;-80
2023/06/01 02:28:01;;;;;;;;;0.00;0.00;;;;;-146.67;32.44;74318.25;5006873;28;61877;-80
2023/06/01 02:30:27;;;;;;;;;0.00;0.00;;;;;-146.67;32.40;74326.22;5024578;28;62802;-80
2023/06/01 02:32:52;;;;;;;;;0.00;0.00;;;;;-146.67;32.17;74332.22;5024424;28;62022;-80
2023/06/01 02:35:18;;;;;;;;;0.00;0.00;;;;;-146.67;32.41;74342.19;5024853;28;62414;-81
2023/06/01 02:37:43;;;;;;;;;0.00;0.00;;;;;-146.67;32.86;74354.16;5025268;28;62061;-81
2023/06/01 02:40:11;;;;;;;;;0.00;0.00;;;;;-146.67;32.75;74358.16;5006209;28;64920;-80
2023/06/01 02:42:39;;;;;;;;;0.00;0.00;;;;;-146.67;32.47;74348.19;5024601;28;62122;-80
2023/06/01 02:45:06;;;;;;;;;0.00;0.00;;;;;-146.67;32.75;74358.16;5024389;28;61785;-80
2023/06/01 02:47:31;;;;;;;;;0.00;0.00;;;;;-146.67;32.87;74360.16;5006231;28;61994;-80
2023/06/01 02:49:57;;;;;;;;;0.00;0.00;;;;;-146.67;32.77;74346.19;5023918;28;62471;-80
2023/06/01 02:52:22;;;;;;;;;0.00;0.00;;;;;-146.67;32.93;74354.16;5024493;28;61780;-80
2023/06/01 02:54:48;;;;;;;;;0.00;0.00;;;;;-146.67;32.73;74350.19;5024643;28;62101;-81
2023/06/01 02:57:13;;;;;;;;;0.00;0.00;;;;;-146.67;32.79;74358.16;5006468;28;61895;-80
2023/06/01 02:59:38;;;;;;;;;0.00;0.00;;;;;-146.67;33.05;74360.16;5023747;28;61807;-81
2023/06/01 03:02:04;;;;;;;;;0.00;0.00;;;;;-146.67;32.68;74366.16;5024144;28;62301;-80
2023/06/01 03:04:32;;;;;;;;;0.00;0.00;;;;;-146.67;33.08;74402.09;5006669;28;61959;-80
2023/06/01 03:06:58;;;;;;;;;0.00;0.00;;;;;-146.67;33.00;74402.09;5024747;28;61962;-80
2023/06/01 03:09:24;;;;;;;;;0.00;0.00;;;;;-146.67;33.35;74404.09;5023557;28;61965;-80
2023/06/01 03:11:50;;;;;;;;;0.00;0.00;;;;;-146.67;33.32;74408.06;5024598;28;61901;-80
2023/06/01 03:14:15;;;;;;;;;0.00;0.00;;;;;-146.67;33.23;74404.09;5024088;28;62317;-81
2023/06/01 03:16:41;;;;;;;;;0.00;0.00;;;;;-146.67;33.32;74392.09;5006743;28;61843;-81
2023/06/01 03:19:06;;;;;;;;;0.00;0.00;;;;;-146.67;32.97;74390.09;5022768;28;62083;-80
2023/06/01 03:21:32;;;;;;;;;0.00;0.00;;;;;-146.67;33.10;74376.13;5023984;28;61762;-80
2023/06/01 03:23:57;;;;;;;;;0.00;0.00;;;;;-146.67;33.17;74374.13;5023958;28;62019;-80
2023/06/01 03:26:23;;;;;;;;;0.00;0.00;;;;;-146.67;33.06;74374.13;5024004;28;61885;-80
2023/06/01 03:28:48;;;;;;;;;0.00;0.00;;;;;-146.67;33.07;74386.13;5023849;28;62019;-81
2023/06/01 03:31:14;;;;;;;;;0.00;0.00;;;;;-146.67;33.28;74384.13;5006069;28;61841;-80
2023/06/01 03:33:39;;;;;;;;;0.00;0.00;;;;;-146.67;33.09;74386.13;5023879;28;62021;-80
2023/06/01 03:36:07;;;;;;;;;0.00;0.00;;;;;-146.67;33.32;74396.09;5024065;28;61905;-80
2023/06/01 03:38:32;;;;;;;;;0.00;0.00;;;;;-146.67;33.32;74406.06;5023200;28;62171;-80
2023/06/01 03:40:58;;;;;;;;;0.00;0.00;;;;;-146.67;33.38;74410.06;5006089;28;62432;-80
2023/06/01 03:43:23;;;;;;;;;0.00;0.00;;;;;-146.67;33.60;74420.06;5005860;28;61906;-80
2023/06/01 03:45:48;;;;;;;;;0.00;0.00;;;;;-146.67;33.49;74422.03;5009092;28;62281;-81
2023/06/01 03:48:14;;;;;;;;;0.00;0.00;;;;;-146.67;33.50;74410.06;4995762;28;64814;-80
2023/06/01 03:50:39;;;;;;;;;0.00;0.00;;;;;-146.67;33.71;74436.03;5002311;28;61829;-80
2023/06/01 03:53:05;;;;;;;;;0.00;0.00;;;;;-146.67;33.43;74438.03;5023497;28;61866;-80
2023/06/01 03:55:30;;;;;;;;;0.00;0.00;;;;;-146.67;34.37;74511.88;5023643;28;61918;-80
2023/06/01 03:57:56;;;;;;;;;0.00;0.00;;;;;-146.67;34.62;74545.81;5023445;28;63060;-80
2023/06/01 04:00:22;;;;;;;;;0.00;0.00;;;;;-146.67;34.46;74527.84;5023399;28;62059;-80
2023/06/01 04:02:54;;;;;;;;;0.00;0.00;;;;;-146.67;34.77;74527.84;5005732;28;61945;-80
2023/06/01 04:05:21;;;;;;;;;0.00;0.00;;;;;-146.67;34.65;74523.88;5005940;28;61787;-80
2023/06/01 04:07:48;;;;;;;;;0.00;0.00;;;;;-146.67;34.44;74523.88;5022673;28;62991;-80
2023/06/01 04:10:14;;;;;;;;;0.00;0.00;;;;;-146.67;34.58;74523.88;5005654;28;61877;-80
2023/06/01 04:12:43;;;;;;;;;0.00;0.00;;;;;-146.67;34.68;74511.88;5005332;28;62224;-80
2023/06/01 04:15:11;;;;;;;;;0.00;0.00;;;;;-146.67;34.45;74507.91;5023444;28;62000;-80
2023/06/01 04:17:40;;;;;;;;;0.00;0.00;;;;;-146.67;34.44;74507.91;5004028;28;63562;-80
2023/06/01 04:20:07;;;;;;;;;0.00;0.00;;;;;-146.67;34.39;74501.91;5005435;28;61913;-80
2023/06/01 04:22:33;;;;;;;;;0.00;0.00;;;;;-146.67;34.67;74513.88;5005043;28;62012;-80
2023/06/01 04:24:58;;;;;;;;;0.00;0.00;;;;;-146.67;34.65;74521.88;5023242;28;62152;-80
2023/06/01 04:27:24;;;;;;;;;0.00;0.00;;;;;-146.67;34.79;74533.84;5004900;28;63696;-80
2023/06/01 04:29:50;;;;;;;;;0.00;0.00;;;;;-146.67;34.84;74549.81;5005091;28;61808;-80
2023/06/01 04:32:21;;;;;;;;;0.00;0.00;;;;;-146.67;34.77;74545.81;5023034;28;61793;-80
2023/06/01 04:34:49;;;;;;;;;0.00;0.00;;;;;-146.67;34.83;74557.81;5005423;28;61727;-80
2023/06/01 04:37:21;;;;;;;;;0.00;0.00;;;;;-146.67;34.84;74557.81;5004348;28;63834;-80
2023/06/01 04:39:51;;;;;;;;;0.00;0.00;;;;;-146.67;34.65;74539.84;5004908;28;61755;-80
2023/06/01 04:42:18;;;;;;;;;0.00;0.00;;;;;-146.67;34.70;74531.84;5023380;28;62057;-80
2023/06/01 04:44:46;;;;;;;;;0.00;0.00;;;;;-146.67;34.39;74535.84;5022878;28;62133;-81
2023/06/01 04:47:12;;;;;;;;;1.00;0.00;;;;;-146.67;34.50;74541.84;5021471;28;63058;-80
2023/06/01 04:49:41;;;;;;;;;0.00;0.00;;;;;-146.67;34.93;74551.81;4997795;28;61919;-80
2023/06/01 04:52:07;;;;;;;;;0.00;0.00;;;;;-146.67;34.70;74555.81;5004861;28;61798;-80
2023/06/01 04:54:33;;;;;;;;;0.00;0.00;;;;;-146.67;34.68;74555.81;5023081;28;62028;-80
2023/06/01 04:56:58;;;;;;;;;0.00;0.00;;;;;-146.67;35.00;74553.81;5004383;28;63743;-80
2023/06/01 04:59:25;;;;;;;;;0.00;0.00;;;;;-146.67;34.90;74551.81;5004722;28;62067;-80
2023/06/01 05:01:51;;;;;;;;;0.00;0.00;;;;;-146.67;34.32;74551.81;5022821;28;61729;-80
2023/06/01 05:04:16;;;;;;;;;0.00;0.00;;;;;-146.67;34.58;74543.84;5022673;28;61848;-80
2023/06/01 05:06:42;;;;;;;;;0.00;0.00;;;;;-146.67;34.71;74535.84;5021639;28;62923;-80
2023/06/01 05:09:07;;;;;;;;;0.00;0.00;;;;;-146.67;34.65;74527.84;5022743;28;61898;-81
2023/06/01 05:11:33;;;;;;;;;0.00;0.00;;;;;-146.67;34.51;74513.88;5022552;28;61752;-80
2023/06/01 05:14:01;;;;;;;;;0.00;0.00;;;;;-146.67;34.50;74499.91;5022647;28;62051;-81
2023/06/01 05:16:27;;;;;;;;;0.00;0.00;;;;;-146.67;33.99;74491.94;5021998;28;63397;-80
2023/06/01 05:18:53;;;;;;;;;0.00;0.00;;;;;-146.67;34.20;74485.94;5003527;28;62022;-79
2023/06/01 05:21:18;;;;;;;;;0.00;0.00;;;;;-146.67;34.17;74481.94;5022142;28;61965;-78
2023/06/01 05:23:44;;;;;;;;;0.00;0.00;;;;;-146.67;33.97;74469.97;5022654;28;61973;-77
2023/06/01 05:26:09;;;;;;;;;0.00;0.00;;;;;-146.67;33.93;74465.97;5021352;28;62956;-77
2023/06/01 05:28:35;;;;;;;;;0.00;0.00;;;;;-146.67;33.71;74481.94;5022600;28;61989;-77
2023/06/01 05:31:01;;;;;;;;;0.00;0.00;;;;;-146.67;33.80;74456.00;5022114;28;62001;-78
2023/06/01 05:33:27;;;;;;;;;0.00;0.00;;;;;-146.67;33.69;74430.03;5003049;28;61982;-79
2023/06/01 05:35:52;;;;;;;;;0.00;0.00;;;;;-146.67;33.38;74376.13;5002896;28;64679;-79
2023/06/01 05:38:18;;;;;;;;;0.00;0.00;;;;;-146.67;32.66;74302.25;5019641;28;62025;-78
2023/06/01 05:40:44;;;;;;;;;0.00;0.00;;;;;-146.67;31.97;74254.34;5022057;28;62040;-81
2023/06/01 05:43:10;;;;;;;;;0.00;0.00;;;;;-146.67;31.79;74194.47;5021791;28;63164;-88
2023/06/01 05:45:35;;;;;;;;;0.00;0.00;;;;;-146.67;31.56;74148.56;5020618;28;63130;-81
2023/06/01 05:48:01;;;;;;;;;0.00;0.00;;;;;-146.67;30.90;74114.63;5019569;28;61942;-77
2023/06/01 05:50:27;;;;;;;;;0.00;0.00;;;;;-146.67;31.19;74132.56;5016179;28;61759;-83
2023/06/01 05:52:53;;;;;;;;;0.00;0.00;;;;;-146.67;30.99;74086.66;5021992;28;61936;-80
2023/06/01 05:55:19;;;;;;;;;0.00;0.00;;;;;-146.67;30.40;74068.69;5021009;28;62006;-77
2023/06/01 05:57:45;;;;;;;;;0.00;0.00;;;;;-146.67;30.21;74070.69;5004248;28;61914;-81
2023/06/01 06:00:15;;;;;;;;;0.00;0.00;;;;;-146.67;30.97;74090.66;5004458;28;61812;-83
2023/06/01 06:02:43;;;;;;;;;0.00;0.00;;;;;-146.67;30.68;74110.63;5025460;28;61974;-79
2023/06/01 06:05:09;;;;;;;;;0.00;0.00;;;;;-146.67;31.20;74130.59;5005777;28;64929;-79
2023/06/01 06:07:35;;;;;;;;;0.00;0.00;;;;;-146.67;30.99;74130.59;5025407;28;61852;-79
2023/06/01 06:10:01;;;;;;;;;0.00;0.00;;;;;-146.67;30.93;74126.59;5025349;28;61713;-78
2023/06/01 06:12:27;;;;;;;;;0.00;0.00;;;;;-146.67;30.86;74120.59;5007104;28;61911;-79
2023/06/01 06:14:53;;;;;;;;;0.00;0.00;;;;;-146.67;30.81;74112.63;5006596;28;64710;-78
2023/06/01 06:17:19;;;;;;;;;0.00;0.00;;;;;-146.67;30.67;74088.66;5024455;28;62391;-78
2023/06/01 06:19:45;;;;;;;;;0.00;0.00;;;;;-146.67;30.58;74066.69;5007711;28;61822;-77
2023/06/01 06:22:11;;;;;;;;;0.00;0.00;;;;;-146.67;30.13;74012.81;5007467;28;61974;-76
2023/06/01 06:24:36;;;;;;;;;0.00;0.00;;;;;-146.67;29.38;73881.06;5024344;28;62010;-78
2023/06/01 06:27:03;;;;;;;;;0.00;0.00;;;;;-146.67;29.06;73867.09;5024758;28;61859;-77
2023/06/01 06:29:29;;;;;;;;;0.00;0.00;;;;;-146.67;29.45;73875.06;5025013;28;61906;-77
2023/06/01 06:31:54;;;;;;;;;0.00;0.00;;;;;-146.67;29.26;73857.09;5007279;28;62058;-78
2023/06/01 06:34:20;;;;;;;;;0.00;0.00;;;;;-146.67;28.83;73857.09;5005688;28;63834;-78
2023/06/01 06:36:46;;;;;;;;;14.33;13.67;;;;;-146.67;29.33;73940.94;5006616;28;61876;-77
2023/06/01 06:39:12;;;;;;;;;0.00;0.00;;;;;-146.67;29.88;73980.88;5025132;28;62143;-78
2023/06/01 06:41:39;;;;;;;;;0.00;0.00;;;;;-146.67;29.90;74014.81;5024526;28;62061;-78
2023/06/01 06:44:04;;;;;;;;;0.00;0.00;;;;;-146.67;30.26;74052.72;5006522;28;63825;-78
2023/06/01 06:46:30;;;;;;;;;0.00;0.00;;;;;-146.67;30.47;74082.69;5005907;28;62344;-79
2023/06/01 06:48:55;;;;;;;;;0.00;0.00;;;;;-146.67;30.60;74090.66;5023107;28;61935;-78
2023/06/01 06:51:21;;;;;;;;;0.00;0.00;;;;;-146.67;30.74;74116.59;5024921;28;62092;-76
2023/06/01 06:53:46;;;;;;;;;0.00;0.00;;;;;-146.67;30.69;74114.63;5004760;28;64783;-77
2023/06/01 06:56:12;;;;;;;;;0.00;0.00;;;;;-146.67;30.89;74122.59;5024233;28;61917;-78
2023/06/01 06:58:37;;;;;;;;;0.00;0.00;;;;;-146.67;30.53;74126.59;5024009;28;62149;-77
2023/06/01 07:01:04;;;;;;;;;0.00;0.00;;;;;-146.67;30.94;74130.59;5024374;28;62542;-77
2023/06/01 07:03:33;;;;;;;;;0.00;0.00;;;;;-146.67;30.88;74140.56;5004337;28;65089;-77
2023/06/01 07:05:59;;;;;;;;;0.00;0.00;;;;;-146.67;30.72;74152.53;5024629;28;62140;-78
2023/06/01 07:08:24;;;;;;;;;0.00;0.00;;;;;-146.67;31.05;74162.53;5023924;28;61887;-78
2023/06/01 07:10:49;;;;;;;;;0.00;0.00;;;;;-146.67;31.37;74192.47;5023853;28;62099;-77
2023/06/01 07:13:15;;;;;;;;;0.00;0.00;;;;;-146.67;31.18;74188.47;5006168;28;63383;-77
2023/06/01 07:15:40;;;;;;;;;0.00;0.00;;;;;-146.67;31.28;74190.47;5024007;28;61783;-78
2023/06/01 07:18:06;;;;;;;;;0.00;0.00;;;;;-146.67;31.34;74182.50;5023323;28;62020;-77
2023/06/01 07:20:32;;;;;;;;;0.00;0.00;;;;;-146.67;31.06;74202.44;5024661;28;61730;-77
2023/06/01 07:22:57;;;;;;;;;0.00;0.00;;;;;-146.67;31.40;74210.44;5005457;28;63404;-77
2023/06/01 07:25:23;;;;;;;;;0.00;0.00;;;;;-146.67;31.37;74210.44;5006024;28;62052;-76
2023/06/01 07:27:49;;;;;;;;;0.00;0.00;;;;;-146.67;31.72;74246.38;5024248;28;61717;-76
2023/06/01 07:30:15;;;;;;;;;0.00;0.00;;;;;-146.67;31.90;74244.38;5006717;28;62267;-76
2023/06/01 07:32:42;;;;;;;;;0.00;0.00;;;;;-146.67;31.54;74234.38;5021045;28;63316;-76
2023/06/01 07:35:08;;;;;;;;;0.00;0.00;;;;;-146.67;31.68;74220.41;5006405;28;61830;-76
2023/06/01 07:37:33;;;;;;;;;0.00;0.00;;;;;-146.67;31.53;74216.44;5024327;28;62265;-77
2023/06/01 07:39:58;;;;;;;;;0.00;0.00;;;;;-146.67;31.22;74214.44;5024318;28;61749;-77
2023/06/01 07:42:24;;;;;;;;;0.00;0.00;;;;;-146.67;31.59;74202.44;5005843;28;64011;-77
2023/06/01 07:44:50;;;;;;;;;0.00;0.00;;;;;-146.67;31.54;74222.41;5023477;28;61736;-77
2023/06/01 07:47:15;;;;;;;;;0.00;0.00;;;;;-146.67;31.75;74242.38;5023442;28;62208;-77
2023/06/01 07:49:41;;;;;;;;;0.00;0.00;;;;;-146.67;31.20;74238.38;5023445;28;61827;-78
2023/06/01 07:52:07;;;;;;;;;0.00;0.00;;;;;-146.67;31.17;74244.38;5005106;28;63847;-77
2023/06/01 07:54:34;;;;;;;;;0.00;0.00;;;;;-146.67;31.47;74240.38;5023983;28;61955;-77
2023/06/01 07:56:59;;;;;;;;;0.00;0.00;;;;;-146.67;31.42;74238.38;5023450;28;62040;-77
2023/06/01 07:59:25;;;;;;;;;0.00;0.00;;;;;-146.67;31.79;74246.38;5023714;28;62123;-77
2023/06/01 08:01:51;;;;;;;;;0.00;0.00;;;;;-146.67;31.25;74240.38;5022723;28;61989;-77
2023/06/01 08:04:20;;;;;;;;;0.00;0.00;;;;;-146.67;31.49;74264.34;5023478;28;61877;-77
2023/06/01 08:06:46;;;;;;;;;0.00;0.00;;;;;-146.67;31.76;74268.31;5005460;28;62031;-77
2023/06/01 08:09:11;;;;;;;;;0.00;0.00;;;;;-146.67;31.48;74258.34;5023795;28;61759;-78
2023/06/01 08:11:37;;;;;;;;;0.00;0.00;;;;;-146.67;31.57;74256.34;5022946;28;63195;-78
2023/06/01 08:14:07;;;;;;;;;0.00;0.00;;;;;-146.67;31.48;74262.34;5023083;28;61732;-77
2023/06/01 08:16:33;;;;;;;;;0.00;0.00;;;;;-146.67;31.52;74258.34;5023654;28;61768;-77
2023/06/01 08:18:59;;;;;;;;;0.00;0.00;;;;;-146.67;31.71;74252.34;5022846;28;61871;-77
2023/06/01 08:21:25;;;;;;;;;0.00;0.00;;;;;-146.67;31.57;74240.38;5004889;28;63479;-77
2023/06/01 08:23:54;;;;;;;;;0.00;0.00;;;;;-146.67;31.34;74236.38;5004491;28;61980;-77
2023/06/01 08:26:20;;;;;;;;;0.00;0.00;;;;;-146.67;31.46;74254.34;5023087;28;62233;-77
2023/06/01 08:28:52;;;;;;;;;0.00;0.00;;;;;-146.67;31.63;74244.38;5023434;28;61785;-77
2023/06/01 08:31:22;;;;;;;;;3.33;2.67;;;;;-146.67;31.68;74254.34;5004741;28;64700;-77
2023/06/01 08:33:48;;;;;;;;;0.00;0.00;;;;;-146.67;31.76;74252.34;5022927;28;61896;-77
2023/06/01 08:36:14;;;;;;;;;1.00;1.00;;;;;-146.67;31.73;74248.38;5022930;28;61765;-77
2023/06/01 08:38:40;;;;;;;;;0.00;0.00;;;;;-146.67;31.69;74240.38;5023539;28;61769;-77
2023/06/01 08:41:37;;;;;;;;;0.00;0.00;;;;;-146.67;31.71;74236.38;5022380;28;63010;-77
2023/06/01 08:44:04;;;;;;;;;0.00;0.00;;;;;-146.67;31.71;74228.41;5022582;28;61967;-77
2023/06/01 08:46:34;;;;;;;;;0.00;0.00;;;;;-146.67;31.93;74218.41;5022880;28;61969;-77
2023/06/01 08:49:00;;;;;;;;;0.00;0.00;;;;;-146.67;31.38;74212.44;5001374;28;62655;-77
2023/06/01 08:51:25;;;;;;;;;4.00;0.67;;;;;-146.67;31.65;74202.44;5001538;28;63759;-77
2023/06/01 08:53:56;;;;;;;;;0.00;0.00;;;;;-146.67;31.22;74194.47;5003283;28;62204;-77
2023/06/01 08:56:22;;;;;;;;;0.00;0.00;;;;;-146.67;31.31;74188.47;5001834;28;61800;-77
2023/06/01 08:58:47;;;;;;;;;0.00;0.00;;;;;-146.67;31.36;74184.47;5003214;28;61890;-77
2023/06/01 09:01:21;;;;;;;;;0.00;0.00;;;;;-146.67;31.75;74176.50;5003879;28;64057;-77
2023/06/01 09:03:53;;;;;;;;;0.00;0.00;;;;;-146.67;31.22;74178.50;5022533;28;61687;-78
2023/06/01 09:06:18;;;;;;;;;0.00;0.00;;;;;-146.67;31.45;74174.50;5022105;28;62177;-77
2023/06/01 09:08:45;;;;;;;;;0.00;0.00;;;;;-146.67;31.54;74170.50;5005208;28;61903;-78
2023/06/01 09:11:10;;;;;;;;;0.00;0.00;;;;;-146.67;31.59;74174.50;5021983;28;62018;-77
2023/06/01 09:13:38;;;;;;;;;0.00;0.00;;;;;-146.67;31.37;74166.50;5022430;28;62350;-77
2023/06/01 09:16:03;;;;;;;;;0.00;0.00;;;;;-146.67;31.45;74158.53;5022467;28;61873;-77
2023/06/01 09:18:29;;;;;;;;;0.00;0.00;;;;;-146.67;31.35;74150.53;5021713;28;62038;-78
2023/06/01 09:21:09;;;;;;;;;0.00;0.00;;;;;-146.67;31.55;74138.56;5021654;28;61785;-78
2023/06/01 09:23:35;;;;;;;;;0.00;0.00;;;;;-146.67;31.25;74130.59;5022359;28;61889;-78
2023/06/01 09:26:11;;;;;;;;;0.00;0.00;;;;;-146.67;30.87;74132.56;5022532;28;61853;-77
2023/06/01 09:28:55;;;;;;;;;0.00;0.00;;;;;-146.67;31.18;74130.59;5022087;28;61946;-77
2023/06/01 09:31:43;;;;;;;;;0.00;0.00;;;;;-146.67;31.35;74118.59;5003681;28;64671;-77
2023/06/01 09:34:20;;;;;;;;;0.00;0.00;;;;;-146.67;31.00;74112.63;5003675;28;62116;-78
2023/06/01 09:36:46;;;;;;;;;0.00;0.00;;;;;-146.67;31.29;74108.63;5022471;28;62016;-77
2023/06/01 09:39:14;;;;;;;;;0.00;0.00;;;;;-146.67;31.38;74098.66;5022372;28;61938;-77
2023/06/01 09:41:55;;;;;;;;;0.00;0.00;;;;;-146.67;31.17;74086.66;5003112;28;63835;-77
2023/06/01 09:44:35;;;;;;;;;0.00;0.00;;;;;-146.67;30.70;74072.69;5021938;28;62025;-77
2023/06/01 09:47:03;;;;;;;;;0.00;0.00;;;;;-146.67;30.98;74060.72;5003699;28;61873;-76
2023/06/01 09:49:30;;;;;;;;;0.00;0.00;;;;;-146.67;30.71;74054.72;5016032;28;62098;-78
2023/06/01 09:52:05;;;;;;;;;0.00;0.00;;;;;-146.67;30.79;74040.75;5021710;28;61976;-77
2023/06/01 09:54:42;;;;;;;;;0.00;0.00;;;;;-146.67;30.71;74022.78;5021829;28;62193;-77
2023/06/01 09:57:08;;;;;;;;;0.00;0.00;;;;;-146.67;30.56;74012.81;5020198;28;61824;-77
2023/06/01 09:59:44;;;;;;;;;0.00;0.00;;;;;-146.67;30.75;74004.81;5021864;28;61789;-78
2023/06/01 10:02:14;;;;;;;;;0.00;0.00;;;;;-146.67;30.91;73986.84;5021202;28;61886;-77
2023/06/01 10:04:44;;;;;;;;;0.00;0.00;;;;;-146.67;30.46;73960.91;5021266;28;62618;-77
2023/06/01 10:07:12;;;;;;;;;0.00;0.00;;;;;-146.67;30.29;73940.94;5004014;28;62046;-77
2023/06/01 10:09:42;;;;;;;;;0.00;0.00;;;;;-146.67;30.23;73944.94;5022006;28;61750;-76
2023/06/01 10:12:08;;;;;;;;;0.00;0.00;;;;;-146.67;30.05;73928.97;5021025;28;62849;-78
2023/06/01 10:14:37;;;;;;;;;0.00;0.00;;;;;-146.67;30.09;73920.97;5021545;28;61877;-78
2023/06/01 10:17:03;;;;;;;;;0.00;0.00;;;;;-146.67;29.87;73917.00;5021259;28;61866;-78
2023/06/01 10:19:30;;;;;;;;;0.00;0.00;;;;;-146.67;30.00;73907.00;5021495;28;62099;-78
2023/06/01 10:21:57;;;;;;;;;0.00;0.00;;;;;-146.67;29.80;73863.09;5021276;28;62190;-78
2023/06/01 10:24:23;;;;;;;;;4.00;1.00;;;;;-146.67;29.80;73867.09;5001668;28;61853;-78
2023/06/01 10:27:05;;;;;;;;;0.00;0.00;;;;;-146.67;29.80;73849.13;5002233;28;62620;-76
2023/06/01 10:29:31;;;;;;;;;0.00;0.00;;;;;-146.67;29.52;73823.16;5021508;28;62076;-76
2023/06/01 10:31:57;;;;;;;;;0.00;0.00;;;;;-146.67;29.68;73829.16;5002974;28;63577;-77
2023/06/01 10:34:44;;;;;;;;;0.00;0.00;;;;;-146.67;29.55;73805.22;5021015;28;61936;-77
2023/06/01 10:37:11;;;;;;;;;0.00;0.00;;;;;-146.67;29.49;73771.28;5005080;28;62374;-80
2023/06/01 10:39:39;;;;;;;;;0.00;0.00;;;;;-146.67;29.04;73763.28;5011551;28;62168;-79
2023/06/01 10:42:25;;;;;;;;;0.00;0.00;;;;;-146.67;28.93;73741.34;5019942;28;63004;-79
2023/06/01 10:44:50;;;;;;;;;0.00;0.00;;;;;-146.67;28.75;73747.31;4988962;28;61805;-79
2023/06/01 10:47:17;;;;;;;;;0.00;0.00;;;;;-146.67;28.97;73733.34;5022495;28;61874;-81
2023/06/01 10:49:48;;;;;;;;;0.00;0.00;;;;;-146.67;28.92;73707.41;5023259;28;62048;-76
2023/06/01 10:52:26;;;;;;;;;0.00;0.00;;;;;-146.67;28.92;73691.44;5023653;28;62015;-77
2023/06/01 10:54:55;;;;;;;;;0.00;0.00;;;;;-146.67;28.52;73675.47;5023017;28;61894;-78
2023/06/01 10:57:25;;;;;;;;;0.00;0.00;;;;;-146.67;28.53;73653.50;5024318;28;62117;-79
2023/06/01 11:00:09;;;;;;;;;0.00;0.00;;;;;-146.67;28.52;73645.53;5022827;28;62242;-80
2023/06/01 11:02:34;;;;;;;;;0.00;0.00;;;;;-146.67;28.60;73637.53;5022085;28;62825;-83
2023/06/01 11:05:39;;;;;;;;;0.00;0.00;;;;;-146.67;28.38;73621.56;5005502;28;61908;-81
2023/06/01 11:08:06;;;;;;;;;0.00;0.00;;;;;-146.67;27.94;73599.63;5017812;28;62025;-82
2023/06/01 11:10:50;;;;;;;;;0.00;0.00;;;;;-146.67;27.72;73569.66;5021560;28;62073;-80
2023/06/01 11:13:21;;;;;;;;;0.00;0.00;;;;;-146.67;27.61;73559.69;5022119;28;62047;-79
2023/06/01 11:16:07;;;;;;;;;0.00;0.00;;;;;-146.67;27.70;73543.72;5003358;28;62017;-79
2023/06/01 11:18:58;;;;;;;;;0.00;0.00;;;;;-146.67;27.64;73529.75;5020945;28;62174;-79
2023/06/01 11:21:44;;;;;;;;;0.00;0.00;;;;;-146.67;27.74;73517.78;5021113;28;61864;-80